createdAt,value
2019-05-02T00:00:14.878Z,13.90
2019-05-02T00:02:44.051Z,13.80
2019-05-02T00:05:13.302Z,13.70
2019-05-02T00:07:43.311Z,13.70
2019-05-02T00:10:15.006Z,13.60
2019-05-02T00:12:45.968Z,13.60
2019-05-02T00:15:18.026Z,13.50
2019-05-02T00:17:46.995Z,13.40
2019-05-02T00:20:21.119Z,13.30
2019-05-02T00:22:51.982Z,13.20
2019-05-02T00:25:18.778Z,13.10
2019-05-02T00:27:47.658Z,13.00
2019-05-02T00:30:17.582Z,13.00
2019-05-02T00:32:46.660Z,12.90
2019-05-02T00:35:15.659Z,12.90
2019-05-02T00:37:44.834Z,12.70
2019-05-02T00:40:13.983Z,12.70
2019-05-02T00:42:42.645Z,12.60
2019-05-02T00:45:13.978Z,12.60
2019-05-02T00:47:47.920Z,12.60
2019-05-02T00:50:14.141Z,12.60
2019-05-02T00:52:42.857Z,12.70
2019-05-02T00:55:11.776Z,12.60
2019-05-02T00:57:40.710Z,12.60
2019-05-02T01:00:13.243Z,12.50
2019-05-02T01:02:45.860Z,12.50
2019-05-02T01:05:14.896Z,12.40
2019-05-02T01:07:43.773Z,12.40
2019-05-02T01:10:16.846Z,12.30
2019-05-02T01:12:44.443Z,12.30
2019-05-02T01:15:14.712Z,12.30
2019-05-02T01:17:43.698Z,12.30
2019-05-02T01:20:12.980Z,12.20
2019-05-02T01:22:41.707Z,12.20
2019-05-02T01:25:15.344Z,12.10
2019-05-02T01:27:43.299Z,12.10
2019-05-02T01:30:30.730Z,12.00
2019-05-02T01:33:01.495Z,11.90
2019-05-02T01:35:49.407Z,11.80
2019-05-02T01:38:19.838Z,11.80
2019-05-02T01:40:53.078Z,11.80
2019-05-02T01:43:24.069Z,11.80
2019-05-02T01:45:53.395Z,11.60
2019-05-02T01:48:22.492Z,11.60
2019-05-02T01:50:51.549Z,11.50
2019-05-02T01:53:20.384Z,11.50
2019-05-02T01:55:52.061Z,11.50
2019-05-02T01:58:21.011Z,11.40
2019-05-02T02:00:50.259Z,11.40
2019-05-02T02:03:19.164Z,11.40
2019-05-02T02:05:47.918Z,11.30
2019-05-02T02:08:16.724Z,11.40
2019-05-02T02:10:45.468Z,11.40
2019-05-02T02:13:14.374Z,11.40
2019-05-02T02:15:43.263Z,11.30
2019-05-02T02:18:13.397Z,11.30
2019-05-02T02:20:45.238Z,11.30
2019-05-02T02:23:18.752Z,11.20
2019-05-02T02:25:49.065Z,11.20
2019-05-02T02:28:17.685Z,11.20
2019-05-02T02:30:46.635Z,11.10
2019-05-02T02:33:15.433Z,11.10
2019-05-02T02:35:50.217Z,11.00
2019-05-02T02:38:14.829Z,11.00
2019-05-02T02:40:43.641Z,10.90
2019-05-02T02:43:31.604Z,10.90
2019-05-02T02:46:02.068Z,10.90
2019-05-02T02:48:33.525Z,10.80
2019-05-02T02:51:02.108Z,10.90
2019-05-02T02:53:31.110Z,10.80
2019-05-02T02:56:05.517Z,10.90
2019-05-02T02:58:44.591Z,10.80
2019-05-02T03:01:05.510Z,10.80
2019-05-02T03:03:35.322Z,10.80
2019-05-02T03:06:07.584Z,10.80
2019-05-02T03:08:44.679Z,10.80
2019-05-02T03:11:06.036Z,10.80
2019-05-02T03:13:52.785Z,10.90
2019-05-02T03:16:20.579Z,10.80
2019-05-02T03:18:49.587Z,10.70
2019-05-02T03:21:20.186Z,10.60
2019-05-02T03:23:49.033Z,10.50
2019-05-02T03:26:17.908Z,10.50
2019-05-02T03:28:57.239Z,10.50
2019-05-02T03:31:29.819Z,10.40
2019-05-02T03:34:00.103Z,10.40
2019-05-02T03:36:28.692Z,10.30
2019-05-02T03:38:49.156Z,10.30
2019-05-02T03:41:20.808Z,10.20
2019-05-02T03:43:49.450Z,10.20
2019-05-02T03:46:20.567Z,10.10
2019-05-02T03:48:49.528Z,10.10
2019-05-02T03:51:21.593Z,10.10
2019-05-02T03:53:49.075Z,10.10
2019-05-02T03:56:18.194Z,10.10
2019-05-02T03:58:48.321Z,10.10
2019-05-02T04:01:19.356Z,10.10
2019-05-02T04:03:48.529Z,10.10
2019-05-02T04:06:21.001Z,10.00
2019-05-02T04:08:58.884Z,10.00
2019-05-02T04:11:23.909Z,10.00
2019-05-02T04:13:54.372Z,10.00
2019-05-02T04:16:24.348Z,10.00
2019-05-02T04:18:55.816Z,10.10
2019-05-02T04:21:26.595Z,10.10
2019-05-02T04:24:07.648Z,10.10
2019-05-02T04:26:29.533Z,10.10
2019-05-02T04:28:59.385Z,10.10
2019-05-02T04:31:31.534Z,10.10
2019-05-02T04:33:59.423Z,10.10
2019-05-02T04:36:28.932Z,10.10
2019-05-02T04:38:59.586Z,10.20
2019-05-02T04:41:31.674Z,10.10
2019-05-02T04:44:01.667Z,10.10
2019-05-02T04:46:31.656Z,10.10
2019-05-02T04:49:01.089Z,10.20
2019-05-02T04:51:32.156Z,10.20
2019-05-02T04:54:01.911Z,10.20
2019-05-02T04:56:31.377Z,10.30
2019-05-02T04:59:01.929Z,10.30
2019-05-02T05:01:42.065Z,10.40
2019-05-02T05:04:03.292Z,10.40
2019-05-02T05:06:32.985Z,10.40
2019-05-02T05:09:04.213Z,10.40
2019-05-02T05:11:33.529Z,10.40
2019-05-02T05:14:02.987Z,10.40
2019-05-02T05:16:32.303Z,10.50
2019-05-02T05:19:01.904Z,10.60
2019-05-02T05:21:31.420Z,10.70
2019-05-02T05:24:02.462Z,10.70
2019-05-02T05:26:39.182Z,10.70
2019-05-02T05:29:08.246Z,10.70
2019-05-02T05:31:38.237Z,10.70
2019-05-02T05:34:09.805Z,10.60
2019-05-02T05:36:38.900Z,10.60
2019-05-02T05:39:11.663Z,10.70
2019-05-02T05:41:42.658Z,10.80
2019-05-02T05:44:10.554Z,10.90
2019-05-02T05:46:42.520Z,11.10
2019-05-02T05:49:18.377Z,11.20
2019-05-02T05:51:42.291Z,11.30
2019-05-02T05:54:11.778Z,11.40
2019-05-02T05:56:43.242Z,11.60
2019-05-02T05:59:12.041Z,11.80
2019-05-02T06:01:41.690Z,12.10
2019-05-02T06:04:13.981Z,12.30
2019-05-02T06:06:42.165Z,12.50
2019-05-02T06:09:13.787Z,12.70
2019-05-02T06:11:42.284Z,12.90
2019-05-02T06:14:11.961Z,13.10
2019-05-02T06:16:41.335Z,13.30
2019-05-02T06:19:13.010Z,13.40
2019-05-02T06:21:45.238Z,13.40
2019-05-02T06:24:15.791Z,13.50
2019-05-02T06:26:49.594Z,13.50
2019-05-02T06:29:18.450Z,13.60
2019-05-02T06:31:46.584Z,13.80
2019-05-02T06:34:16.368Z,13.90
2019-05-02T06:36:45.837Z,14.10
2019-05-02T06:39:15.520Z,14.20
2019-05-02T06:41:45.392Z,14.30
2019-05-02T06:44:18.466Z,14.50
2019-05-02T06:46:46.374Z,14.60
2019-05-02T06:49:16.056Z,14.60
2019-05-02T06:51:45.524Z,14.70
2019-05-02T06:54:17.998Z,14.70
2019-05-02T06:56:47.887Z,14.90
2019-05-02T06:59:18.583Z,14.90
2019-05-02T07:01:52.372Z,14.90
2019-05-02T07:04:22.789Z,15.00
2019-05-02T07:06:58.685Z,15.00
2019-05-02T07:09:21.684Z,15.20
2019-05-02T07:11:57.277Z,15.20
2019-05-02T07:14:23.373Z,15.30
2019-05-02T07:16:57.648Z,15.40
2019-05-02T07:19:29.419Z,15.50
2019-05-02T07:22:04.003Z,15.60
2019-05-02T07:24:31.115Z,15.80
2019-05-02T07:27:02.567Z,15.80
2019-05-02T07:29:32.056Z,15.80
2019-05-02T07:32:01.273Z,15.80
2019-05-02T07:34:30.583Z,15.90
2019-05-02T07:36:59.950Z,16.00
2019-05-02T07:39:29.093Z,16.00
2019-05-02T07:42:00.515Z,16.10
2019-05-02T07:44:32.535Z,16.00
2019-05-02T07:47:02.561Z,16.10
2019-05-02T07:49:32.310Z,16.10
2019-05-02T07:52:01.797Z,16.20
2019-05-02T07:54:30.964Z,16.40
2019-05-02T07:57:02.297Z,16.70
2019-05-02T07:59:30.859Z,16.90
2019-05-02T08:02:00.319Z,17.20
2019-05-02T08:04:29.613Z,17.50
2019-05-02T08:06:59.022Z,17.30
2019-05-02T08:09:27.996Z,17.30
2019-05-02T08:11:57.213Z,17.40
2019-05-02T08:14:29.180Z,17.70
2019-05-02T08:17:05.283Z,17.90
2019-05-02T08:19:27.727Z,18.20
2019-05-02T08:21:57.111Z,18.50
2019-05-02T08:24:26.193Z,18.70
2019-05-02T08:27:00.270Z,18.80
2019-05-02T08:29:30.779Z,18.90
2019-05-02T08:31:59.844Z,19.20
2019-05-02T08:34:32.974Z,19.70
2019-05-02T08:37:03.284Z,20.20
2019-05-02T08:39:33.883Z,20.10
2019-05-02T08:42:04.603Z,19.90
2019-05-02T08:44:33.820Z,20.00
2019-05-02T08:47:02.764Z,19.60
2019-05-02T08:49:31.978Z,19.10
2019-05-02T08:52:01.966Z,18.60
2019-05-02T08:54:32.795Z,18.40
2019-05-02T08:57:02.243Z,18.70
2019-05-02T08:59:31.578Z,19.20
2019-05-02T09:02:01.072Z,19.50
2019-05-02T09:04:30.747Z,19.80
2019-05-02T09:07:00.807Z,19.60
2019-05-02T09:09:30.128Z,19.60
2019-05-02T09:12:09.716Z,19.90
2019-05-02T09:14:32.065Z,19.90
2019-05-02T09:17:08.073Z,19.50
2019-05-02T09:19:34.752Z,19.60
2019-05-02T09:22:07.386Z,19.80
2019-05-02T09:24:33.549Z,19.90
2019-05-02T09:27:02.747Z,20.40
2019-05-02T09:29:32.730Z,21.00
2019-05-02T09:32:02.254Z,20.20
2019-05-02T09:34:31.870Z,19.30
2019-05-02T09:37:02.691Z,19.60
2019-05-02T09:39:36.400Z,20.60
2019-05-02T09:42:06.567Z,21.40
2019-05-02T09:44:34.382Z,22.00
2019-05-02T09:47:03.481Z,22.10
2019-05-02T09:49:32.660Z,21.80
2019-05-02T09:52:03.365Z,21.80
2019-05-02T09:54:37.031Z,22.10
2019-05-02T09:57:03.673Z,22.50
2019-05-02T09:59:33.348Z,23.20
2019-05-02T10:02:03.539Z,23.90
2019-05-02T10:04:32.702Z,24.40
2019-05-02T10:07:02.586Z,24.90
2019-05-02T10:09:32.396Z,25.10
2019-05-02T10:12:02.132Z,25.70
2019-05-02T10:14:33.040Z,25.10
2019-05-02T10:17:06.896Z,25.10
2019-05-02T10:19:33.473Z,24.40
2019-05-02T10:22:02.529Z,23.40
2019-05-02T10:24:32.322Z,23.00
2019-05-02T10:27:06.515Z,23.60
2019-05-02T10:29:33.053Z,22.60
2019-05-02T10:32:02.184Z,22.40
2019-05-02T10:34:32.977Z,22.50
2019-05-02T10:37:03.092Z,22.10
2019-05-02T10:39:34.036Z,22.10
2019-05-02T10:42:03.377Z,22.10
2019-05-02T10:44:36.357Z,22.00
2019-05-02T10:47:03.065Z,21.40
2019-05-02T10:49:40.093Z,20.60
2019-05-02T10:52:09.342Z,20.40
2019-05-02T10:54:38.525Z,20.00
2019-05-02T10:57:07.897Z,19.80
2019-05-02T10:59:37.312Z,20.00
2019-05-02T11:02:26.686Z,19.80
2019-05-02T11:05:02.569Z,20.00
2019-05-02T11:07:32.691Z,20.10
2019-05-02T11:10:05.052Z,20.00
2019-05-02T11:12:41.987Z,20.50
2019-05-02T11:15:07.991Z,20.60
2019-05-02T11:17:38.555Z,20.50
2019-05-02T11:20:09.717Z,21.20
2019-05-02T11:22:38.902Z,22.10
2019-05-02T11:25:08.357Z,22.00
2019-05-02T11:27:37.573Z,21.70
2019-05-02T11:30:09.156Z,21.70
2019-05-02T11:32:38.390Z,21.50
2019-05-02T11:35:08.034Z,21.30
2019-05-02T11:37:37.120Z,20.60
2019-05-02T11:40:09.450Z,20.70
2019-05-02T11:42:38.532Z,21.00
2019-05-02T11:45:08.772Z,20.60
2019-05-02T11:47:37.932Z,20.30
2019-05-02T11:50:07.347Z,20.10
2019-05-02T11:52:37.557Z,20.20
2019-05-02T11:55:07.987Z,19.90
2019-05-02T11:57:37.219Z,19.80
2019-05-02T12:00:09.516Z,20.00
2019-05-02T12:02:41.614Z,20.20
2019-05-02T12:05:18.937Z,20.10
2019-05-02T12:07:48.116Z,20.20
2019-05-02T12:10:17.199Z,20.00
2019-05-02T12:12:46.253Z,19.50
2019-05-02T12:15:15.966Z,19.30
2019-05-02T12:17:45.378Z,19.10
2019-05-02T12:20:14.735Z,19.30
2019-05-02T12:22:44.019Z,19.40
2019-05-02T12:25:13.455Z,18.90
2019-05-02T12:27:42.665Z,18.60
2019-05-02T12:30:12.217Z,18.30
2019-05-02T12:32:42.715Z,18.30
2019-05-02T12:35:12.121Z,18.40
2019-05-02T12:37:42.411Z,18.30
2019-05-02T12:40:12.627Z,18.30
2019-05-02T12:42:42.218Z,17.80
2019-05-02T12:45:12.335Z,17.70
2019-05-02T12:47:42.779Z,17.60
2019-05-02T12:50:12.589Z,17.40
2019-05-02T12:52:42.967Z,17.60
2019-05-02T12:55:12.936Z,17.40
2019-05-02T12:57:43.013Z,17.50
2019-05-02T13:00:13.003Z,17.30
2019-05-02T13:02:46.843Z,17.20
2019-05-02T13:05:16.204Z,17.00
2019-05-02T13:07:50.702Z,16.80
2019-05-02T13:10:18.252Z,16.80
2019-05-02T13:12:47.484Z,16.70
2019-05-02T13:15:17.023Z,16.80
2019-05-02T13:17:48.949Z,16.90
2019-05-02T13:20:22.172Z,17.00
2019-05-02T13:23:06.245Z,17.20
2019-05-02T13:25:37.064Z,17.10
2019-05-02T13:28:06.771Z,17.20
2019-05-02T13:30:42.838Z,17.60
2019-05-02T13:33:13.512Z,17.60
2019-05-02T13:35:44.335Z,17.60
2019-05-02T13:38:15.372Z,17.60
2019-05-02T13:40:44.855Z,17.60
2019-05-02T13:43:14.676Z,17.50
2019-05-02T13:46:04.543Z,17.30
2019-05-02T13:48:34.350Z,17.60
2019-05-02T13:51:04.114Z,17.70
2019-05-02T13:53:33.925Z,17.80
2019-05-02T13:56:23.671Z,17.70
2019-05-02T13:58:53.328Z,17.70
2019-05-02T14:01:23.213Z,17.50
2019-05-02T14:03:55.684Z,17.40
2019-05-02T14:06:29.855Z,17.30
2019-05-02T14:08:56.805Z,17.30
2019-05-02T14:11:44.460Z,17.20
2019-05-02T14:14:14.205Z,17.10
2019-05-02T14:16:43.768Z,17.10
2019-05-02T14:19:13.215Z,17.10
2019-05-02T14:21:42.588Z,17.10
2019-05-02T14:24:11.978Z,17.00
2019-05-02T14:26:43.333Z,16.80
2019-05-02T14:29:16.104Z,16.80
2019-05-02T14:31:43.348Z,16.80
2019-05-02T14:34:25.857Z,16.80
2019-05-02T14:36:59.143Z,16.70
2019-05-02T14:39:26.695Z,16.90
2019-05-02T14:41:56.130Z,17.20
2019-05-02T14:44:36.246Z,17.30
2019-05-02T14:46:57.127Z,17.50
2019-05-02T14:49:26.481Z,17.60
2019-05-02T14:51:57.244Z,17.40
2019-05-02T14:54:26.700Z,17.30
2019-05-02T14:57:02.002Z,17.30
2019-05-02T14:59:32.327Z,17.20
2019-05-02T15:02:07.526Z,16.90
2019-05-02T15:04:38.232Z,16.80
2019-05-02T15:07:05.651Z,16.70
2019-05-02T15:09:36.312Z,16.70
2019-05-02T15:12:13.888Z,16.60
2019-05-02T15:14:37.268Z,16.50
2019-05-02T15:17:07.748Z,16.30
2019-05-02T15:19:37.385Z,16.40
2019-05-02T15:22:06.760Z,16.30
2019-05-02T15:24:38.007Z,16.40
2019-05-02T15:27:12.060Z,16.60
2019-05-02T15:29:38.119Z,16.60
2019-05-02T15:32:09.366Z,16.50
2019-05-02T15:34:55.665Z,16.40
2019-05-02T15:37:25.927Z,16.40
2019-05-02T15:42:26.549Z,16.50
2019-05-02T15:44:57.192Z,16.50
2019-05-02T15:47:27.318Z,16.50
2019-05-02T15:49:56.605Z,16.50
2019-05-02T15:52:32.526Z,16.60
2019-05-02T15:55:04.173Z,16.50
2019-05-02T15:57:37.655Z,16.40
2019-05-02T16:00:05.635Z,16.40
2019-05-02T16:02:35.012Z,16.40
2019-05-02T16:05:06.185Z,16.30
2019-05-02T16:07:38.029Z,16.30
2019-05-02T16:10:09.136Z,16.30
2019-05-02T16:12:38.835Z,16.30
2019-05-02T16:15:13.445Z,16.40
2019-05-02T16:17:39.279Z,16.50
2019-05-02T16:20:13.198Z,16.40
2019-05-02T16:22:46.198Z,16.20
2019-05-02T16:26:08.738Z,16.30
2019-05-02T16:28:41.166Z,16.30
2019-05-02T16:31:09.611Z,16.30
2019-05-02T16:33:39.427Z,16.40
2019-05-02T16:36:08.604Z,16.50
2019-05-02T16:38:38.470Z,16.50
2019-05-02T16:41:09.756Z,16.50
2019-05-02T16:43:39.453Z,16.50
2019-05-02T16:46:11.877Z,16.70
2019-05-02T16:48:42.517Z,16.50
2019-05-02T16:51:27.623Z,16.30
2019-05-02T16:53:42.717Z,16.30
2019-05-02T16:56:12.079Z,16.00
2019-05-02T16:58:45.334Z,16.00
2019-05-02T17:01:14.895Z,16.00
2019-05-02T17:03:43.608Z,16.00
2019-05-02T17:06:16.926Z,15.90
2019-05-02T17:08:49.426Z,15.80
2019-05-02T17:11:34.527Z,15.70
2019-05-02T17:13:59.782Z,15.60
2019-05-02T17:16:29.191Z,15.60
2019-05-02T17:18:58.491Z,15.60
2019-05-02T17:21:33.710Z,15.50
2019-05-02T17:23:58.506Z,15.50
2019-05-02T17:26:28.753Z,15.40
2019-05-02T17:28:58.066Z,15.00
2019-05-02T17:31:27.433Z,14.60
2019-05-02T17:33:56.703Z,14.20
2019-05-02T17:36:28.647Z,14.10
2019-05-02T17:38:59.271Z,13.80
2019-05-02T17:41:28.523Z,13.70
2019-05-02T17:43:59.169Z,13.60
2019-05-02T17:46:28.589Z,13.60
2019-05-02T17:48:58.013Z,13.50
2019-05-02T17:51:33.868Z,13.50
2019-05-02T17:53:59.871Z,13.50
2019-05-02T17:56:29.385Z,13.40
2019-05-02T17:58:58.924Z,13.30
2019-05-02T18:01:33.399Z,13.20
2019-05-02T18:04:02.000Z,13.20
2019-05-02T18:06:35.312Z,13.20
2019-05-02T18:09:02.507Z,13.10
2019-05-02T18:11:36.437Z,13.20
2019-05-02T18:14:10.100Z,13.20
2019-05-02T18:16:34.541Z,13.20
2019-05-02T18:19:04.379Z,13.10
2019-05-02T18:21:34.012Z,13.10
2019-05-02T18:24:06.069Z,13.10
2019-05-02T18:26:34.520Z,13.10
2019-05-02T18:29:06.783Z,13.10
2019-05-02T18:31:40.109Z,13.00
2019-05-02T18:34:06.268Z,13.10
2019-05-02T18:36:35.889Z,13.10
2019-05-02T18:39:07.778Z,13.00
2019-05-02T18:41:41.738Z,13.00
2019-05-02T18:44:08.456Z,13.10
2019-05-02T18:46:41.502Z,13.10
2019-05-02T18:49:09.109Z,13.00
2019-05-02T18:51:38.536Z,13.00
2019-05-02T18:54:08.106Z,13.00
2019-05-02T18:56:42.859Z,13.10
2019-05-02T18:59:08.325Z,13.10
2019-05-02T19:01:37.584Z,13.00
2019-05-02T19:04:07.932Z,13.00
2019-05-02T19:06:37.434Z,13.00
2019-05-02T19:09:09.737Z,13.00
2019-05-02T19:11:38.712Z,13.00
2019-05-02T19:14:07.772Z,13.10
2019-05-02T19:16:36.719Z,13.00
2019-05-02T19:19:05.861Z,12.90
2019-05-02T19:21:37.821Z,12.90
2019-05-02T19:24:05.809Z,12.80
2019-05-02T19:26:34.607Z,12.80
2019-05-02T19:29:08.342Z,12.70
2019-05-02T19:31:42.210Z,12.70
2019-05-02T19:34:07.919Z,12.70
2019-05-02T19:36:36.590Z,12.70
2019-05-02T19:39:09.820Z,12.70
2019-05-02T19:41:38.954Z,12.70
2019-05-02T19:44:08.288Z,12.60
2019-05-02T19:46:38.836Z,12.70
2019-05-02T19:49:12.475Z,12.70
2019-05-02T19:51:38.068Z,12.60
2019-05-02T19:54:07.221Z,12.50
2019-05-02T19:56:45.373Z,12.50
2019-05-02T19:59:06.642Z,12.40
2019-05-02T20:01:35.272Z,12.30
2019-05-02T20:04:06.076Z,12.20
2019-05-02T20:06:34.875Z,12.10
2019-05-02T20:09:08.238Z,12.00
2019-05-02T20:11:35.442Z,12.00
2019-05-02T20:14:09.312Z,12.00
2019-05-02T20:16:44.129Z,12.00
2019-05-02T20:19:12.278Z,12.00
2019-05-02T20:21:43.024Z,12.00
2019-05-02T20:24:17.485Z,12.00
2019-05-02T20:26:46.639Z,12.00
2019-05-02T20:29:12.835Z,12.00
2019-05-02T20:31:41.702Z,12.10
2019-05-02T20:34:11.803Z,12.00
2019-05-02T20:36:42.471Z,12.00
2019-05-02T20:39:11.904Z,12.00
2019-05-02T20:41:41.925Z,11.90
2019-05-02T20:44:12.176Z,11.90
2019-05-02T20:46:42.078Z,11.90
2019-05-02T20:49:12.839Z,12.00
2019-05-02T20:51:42.338Z,12.00
2019-05-02T20:54:12.510Z,12.00
2019-05-02T20:56:42.655Z,12.10
2019-05-02T20:59:12.712Z,12.10
2019-05-02T21:01:42.873Z,12.00
2019-05-02T21:04:12.209Z,12.00
2019-05-02T21:06:46.488Z,12.00
2019-05-02T21:09:16.847Z,12.00
2019-05-02T21:11:47.248Z,11.90
2019-05-02T21:14:16.053Z,11.80
2019-05-02T21:16:44.872Z,11.80
2019-05-02T21:19:13.451Z,11.80
2019-05-02T21:21:42.707Z,11.70
2019-05-02T21:24:11.376Z,11.60
2019-05-02T21:26:42.004Z,11.80
2019-05-02T21:29:12.127Z,11.80
2019-05-02T21:31:42.563Z,11.90
2019-05-02T21:34:11.833Z,11.80
2019-05-02T21:36:42.537Z,11.80
2019-05-02T21:39:14.460Z,11.80
2019-05-02T21:41:43.173Z,11.80
2019-05-02T21:44:13.100Z,11.90
2019-05-02T21:46:42.336Z,11.80
2019-05-02T21:49:13.142Z,11.90
2019-05-02T21:51:52.344Z,11.80
2019-05-02T21:54:31.339Z,11.80
2019-05-02T21:57:02.642Z,11.80
2019-05-02T21:59:31.311Z,11.70
2019-05-02T22:02:02.416Z,11.70
2019-05-02T22:04:31.790Z,11.70
2019-05-02T22:07:00.708Z,11.70
2019-05-02T22:09:29.300Z,11.80
2019-05-02T22:11:58.503Z,11.80
2019-05-02T22:14:27.265Z,11.70
2019-05-02T22:16:56.115Z,11.70
2019-05-02T22:19:24.884Z,11.70
2019-05-02T22:21:54.957Z,11.70
2019-05-02T22:24:23.834Z,11.70
2019-05-02T22:26:52.771Z,11.80
2019-05-02T22:29:21.993Z,11.90
2019-05-02T22:31:54.185Z,11.80
2019-05-02T22:34:22.044Z,11.80
2019-05-02T22:36:53.838Z,11.70
2019-05-02T22:39:35.252Z,11.50
2019-05-02T22:42:04.595Z,11.40
2019-05-02T22:44:33.807Z,11.40
2019-05-02T22:47:02.539Z,11.30
2019-05-02T22:49:31.943Z,11.20
2019-05-02T22:52:01.014Z,11.20
2019-05-02T22:54:33.285Z,11.20
2019-05-02T22:57:00.255Z,11.20
2019-05-02T22:59:31.536Z,11.20
2019-05-02T23:02:01.964Z,11.20
2019-05-02T23:04:32.341Z,11.20
2019-05-02T23:07:02.342Z,11.10
2019-05-02T23:09:31.505Z,11.10
2019-05-02T23:12:02.608Z,11.00
2019-05-02T23:14:32.518Z,11.00
2019-05-02T23:17:02.061Z,11.00
2019-05-02T23:19:31.724Z,11.10
2019-05-02T23:22:02.043Z,11.00
2019-05-02T23:24:47.364Z,10.90
2019-05-02T23:27:27.106Z,10.90
2019-05-02T23:29:55.900Z,10.90
2019-05-02T23:32:24.885Z,10.80
2019-05-02T23:34:53.614Z,10.80
2019-05-02T23:37:22.639Z,10.80
2019-05-02T23:39:52.284Z,10.80
2019-05-02T23:42:21.879Z,10.80
2019-05-02T23:44:51.876Z,10.80
2019-05-02T23:47:22.449Z,10.80
2019-05-02T23:49:53.764Z,10.90
2019-05-02T23:52:22.689Z,10.90
2019-05-02T23:54:52.436Z,10.90
2019-05-02T23:57:22.966Z,10.90
2019-05-02T23:59:51.939Z,11.00
